sensor_id;sensor_type;location;lat;lon;timestamp;pressure;altitude;pressure_sealevel;temperature;humidity
56600;BME280;51832;48.152;11.530;2023-03-22T00:01:55;95346.72;;;14.17;54.24
56600;BME280;51832;48.152;11.530;2023-03-22T00:06:56;95335.25;;;13.90;54.95
56600;BME280;51832;48.152;11.530;2023-03-22T00:11:56;95328.31;;;14.06;54.67
56600;BME280;51832;48.152;11.530;2023-03-22T00:16:57;95319.50;;;13.78;55.39
56600;BME280;51832;48.152;11.530;2023-03-22T00:21:57;95320.19;;;13.91;55.02
56600;BME280;51832;48.152;11.530;2023-03-22T00:26:59;95311.34;;;13.63;55.92
56600;BME280;51832;48.152;11.530;2023-03-22T00:32:00;95317.72;;;13.67;55.77
56600;BME280;51832;48.152;11.530;2023-03-22T00:37:00;95289.22;;;13.31;57.21
56600;BME280;51832;48.152;11.530;2023-03-22T00:42:03;95294.09;;;13.39;57.06
56600;BME280;51832;48.152;11.530;2023-03-22T00:47:04;95299.91;;;13.58;56.04
56600;BME280;51832;48.152;11.530;2023-03-22T00:52:04;95299.22;;;13.67;55.41
56600;BME280;51832;48.152;11.530;2023-03-22T00:57:05;95291.25;;;13.84;54.97
56600;BME280;51832;48.152;11.530;2023-03-22T01:02:05;95286.03;;;13.89;54.87
56600;BME280;51832;48.152;11.530;2023-03-22T01:07:06;95286.88;;;13.95;54.46
56600;BME280;51832;48.152;11.530;2023-03-22T01:12:07;95287.81;;;13.83;54.28
56600;BME280;51832;48.152;11.530;2023-03-22T01:17:07;95296.91;;;14.14;52.91
56600;BME280;51832;48.152;11.530;2023-03-22T01:22:08;95298.59;;;13.77;54.02
56600;BME280;51832;48.152;11.530;2023-03-22T01:27:08;95285.97;;;14.06;53.02
56600;BME280;51832;48.152;11.530;2023-03-22T01:32:09;95272.88;;;13.72;53.80
56600;BME280;51832;48.152;11.530;2023-03-22T01:37:09;95275.94;;;14.08;53.37
56600;BME280;51832;48.152;11.530;2023-03-22T01:42:13;95270.53;;;13.98;53.49
56600;BME280;51832;48.152;11.530;2023-03-22T01:47:14;95252.59;;;13.39;54.99
56600;BME280;51832;48.152;11.530;2023-03-22T01:52:15;95267.69;;;13.61;54.79
56600;BME280;51832;48.152;11.530;2023-03-22T01:57:15;95262.03;;;13.52;55.19
56600;BME280;51832;48.152;11.530;2023-03-22T02:02:17;95260.94;;;13.31;55.85
56600;BME280;51832;48.152;11.530;2023-03-22T02:07:19;95256.41;;;13.10;56.80
56600;BME280;51832;48.152;11.530;2023-03-22T02:28:46;95254.97;;;12.69;57.95
56600;BME280;51832;48.152;11.530;2023-03-22T02:49:40;95253.41;;;12.73;59.05
56600;BME280;51832;48.152;11.530;2023-03-22T02:54:53;95246.16;;;12.80;58.87
56600;BME280;51832;48.152;11.530;2023-03-22T02:59:57;95254.47;;;12.72;58.79
56600;BME280;51832;48.152;11.530;2023-03-22T03:04:59;95266.41;;;12.91;59.00
56600;BME280;51832;48.152;11.530;2023-03-22T03:10:00;95260.06;;;12.75;59.30
56600;BME280;51832;48.152;11.530;2023-03-22T03:15:00;95267.84;;;12.82;59.25
56600;BME280;51832;48.152;11.530;2023-03-22T03:20:20;95271.28;;;12.82;59.09
56600;BME280;51832;48.152;11.530;2023-03-22T03:25:31;95272.31;;;12.81;58.50
56600;BME280;51832;48.152;11.530;2023-03-22T03:30:43;95266.66;;;13.23;57.44
56600;BME280;51832;48.152;11.530;2023-03-22T03:35:51;95270.09;;;13.24;57.29
56600;BME280;51832;48.152;11.530;2023-03-22T03:41:01;95268.06;;;13.31;57.15
56600;BME280;51832;48.152;11.530;2023-03-22T03:46:02;95266.38;;;12.74;58.64
56600;BME280;51832;48.152;11.530;2023-03-22T03:51:03;95266.09;;;12.71;59.22
56600;BME280;51832;48.152;11.530;2023-03-22T03:56:04;95265.91;;;12.77;59.12
56600;BME280;51832;48.152;11.530;2023-03-22T04:01:06;95259.81;;;12.60;59.69
56600;BME280;51832;48.152;11.530;2023-03-22T04:06:07;95254.28;;;12.45;60.71
56600;BME280;51832;48.152;11.530;2023-03-22T04:11:08;95248.81;;;12.97;58.83
56600;BME280;51832;48.152;11.530;2023-03-22T04:16:08;95257.81;;;13.01;58.28
56600;BME280;51832;48.152;11.530;2023-03-22T04:21:08;95258.25;;;12.31;60.53
56600;BME280;51832;48.152;11.530;2023-03-22T04:26:11;95260.03;;;12.42;60.29
56600;BME280;51832;48.152;11.530;2023-03-22T04:31:12;95257.25;;;12.20;61.23
56600;BME280;51832;48.152;11.530;2023-03-22T04:36:13;95255.75;;;11.96;62.00
56600;BME280;51832;48.152;11.530;2023-03-22T04:41:17;95249.50;;;11.85;62.08
56600;BME280;51832;48.152;11.530;2023-03-22T04:46:17;95246.19;;;12.06;61.38
56600;BME280;51832;48.152;11.530;2023-03-22T04:51:20;95247.97;;;13.30;72.33
56600;BME280;51832;48.152;11.530;2023-03-22T04:56:21;95246.16;;;13.96;61.44
56600;BME280;51832;48.152;11.530;2023-03-22T05:01:21;95228.84;;;14.10;60.51
56600;BME280;51832;48.152;11.530;2023-03-22T05:06:22;95255.31;;;14.10;55.10
56600;BME280;51832;48.152;11.530;2023-03-22T05:11:22;95251.44;;;13.96;55.96
56600;BME280;51832;48.152;11.530;2023-03-22T05:16:27;95252.44;;;13.68;55.05
56600;BME280;51832;48.152;11.530;2023-03-22T05:21:28;95251.75;;;12.84;58.63
56600;BME280;51832;48.152;11.530;2023-03-22T05:26:35;95255.75;;;12.86;58.29
56600;BME280;51832;48.152;11.530;2023-03-22T05:31:41;95263.13;;;12.84;58.17
56600;BME280;51832;48.152;11.530;2023-03-22T05:36:41;95256.06;;;12.73;58.58
56600;BME280;51832;48.152;11.530;2023-03-22T05:41:42;95252.88;;;12.71;58.90
56600;BME280;51832;48.152;11.530;2023-03-22T05:46:42;95258.94;;;12.55;59.07
56600;BME280;51832;48.152;11.530;2023-03-22T05:51:43;95250.47;;;12.69;58.40
56600;BME280;51832;48.152;11.530;2023-03-22T05:56:43;95255.56;;;12.59;58.69
56600;BME280;51832;48.152;11.530;2023-03-22T06:01:43;95262.06;;;12.68;58.44
56600;BME280;51832;48.152;11.530;2023-03-22T06:06:44;95257.25;;;12.99;56.76
56600;BME280;51832;48.152;11.530;2023-03-22T06:11:44;95257.59;;;13.36;55.88
56600;BME280;51832;48.152;11.530;2023-03-22T06:16:45;95259.03;;;13.65;54.70
56600;BME280;51832;48.152;11.530;2023-03-22T06:21:45;95260.63;;;13.28;55.26
56600;BME280;51832;48.152;11.530;2023-03-22T06:26:45;95262.22;;;13.29;55.27
56600;BME280;51832;48.152;11.530;2023-03-22T06:31:46;95256.75;;;13.52;54.07
56600;BME280;51832;48.152;11.530;2023-03-22T06:36:47;95252.72;;;13.66;53.75
56600;BME280;51832;48.152;11.530;2023-03-22T06:41:47;95254.81;;;14.13;52.83
56600;BME280;51832;48.152;11.530;2023-03-22T06:46:48;95258.44;;;13.80;53.76
56600;BME280;51832;48.152;11.530;2023-03-22T06:51:48;95262.91;;;14.01;52.46
56600;BME280;51832;48.152;11.530;2023-03-22T06:56:49;95262.47;;;13.87;51.97
56600;BME280;51832;48.152;11.530;2023-03-22T07:01:49;95260.13;;;14.13;51.38
56600;BME280;51832;48.152;11.530;2023-03-22T07:06:50;95266.81;;;14.42;50.40
56600;BME280;51832;48.152;11.530;2023-03-22T07:11:51;95271.28;;;14.69;49.93
56600;BME280;51832;48.152;11.530;2023-03-22T07:16:51;95268.50;;;15.17;48.04
56600;BME280;51832;48.152;11.530;2023-03-22T07:21:52;95280.50;;;15.25;47.49
56600;BME280;51832;48.152;11.530;2023-03-22T07:26:52;95275.75;;;15.32;47.08
56600;BME280;51832;48.152;11.530;2023-03-22T07:31:53;95274.72;;;15.70;46.32
56600;BME280;51832;48.152;11.530;2023-03-22T07:36:53;95270.13;;;15.55;46.69
56600;BME280;51832;48.152;11.530;2023-03-22T07:41:56;95274.78;;;15.43;47.24
56600;BME280;51832;48.152;11.530;2023-03-22T07:46:56;95271.69;;;15.14;47.92
56600;BME280;51832;48.152;11.530;2023-03-22T07:51:56;95273.38;;;15.31;47.37
56600;BME280;51832;48.152;11.530;2023-03-22T07:56:57;95273.59;;;15.24;47.92
56600;BME280;51832;48.152;11.530;2023-03-22T08:01:57;95277.66;;;15.79;46.72
56600;BME280;51832;48.152;11.530;2023-03-22T08:06:58;95293.97;;;15.55;47.44
56600;BME280;51832;48.152;11.530;2023-03-22T08:11:59;95279.72;;;15.67;47.41
56600;BME280;51832;48.152;11.530;2023-03-22T08:16:59;95282.88;;;16.21;46.66
56600;BME280;51832;48.152;11.530;2023-03-22T08:22:00;95279.63;;;16.04;47.75
56600;BME280;51832;48.152;11.530;2023-03-22T08:27:01;95269.47;;;15.90;48.92
56600;BME280;51832;48.152;11.530;2023-03-22T08:32:02;95286.63;;;15.68;48.88
56600;BME280;51832;48.152;11.530;2023-03-22T08:37:04;95277.94;;;15.82;48.24
56600;BME280;51832;48.152;11.530;2023-03-22T08:42:05;95278.72;;;16.50;47.18
56600;BME280;51832;48.152;11.530;2023-03-22T08:47:06;95265.69;;;16.59;46.59
56600;BME280;51832;48.152;11.530;2023-03-22T08:52:06;95279.31;;;17.03;45.49
56600;BME280;51832;48.152;11.530;2023-03-22T08:57:07;95267.09;;;17.07;45.34
56600;BME280;51832;48.152;11.530;2023-03-22T09:02:12;95257.47;;;17.47;44.56
56600;BME280;51832;48.152;11.530;2023-03-22T09:07:13;95261.00;;;17.07;44.68
56600;BME280;51832;48.152;11.530;2023-03-22T09:12:13;95266.56;;;16.90;42.65
56600;BME280;51832;48.152;11.530;2023-03-22T09:17:14;95246.09;;;16.90;42.84
56600;BME280;51832;48.152;11.530;2023-03-22T09:22:14;95254.09;;;16.80;42.59
56600;BME280;51832;48.152;11.530;2023-03-22T09:27:15;95259.91;;;16.97;41.43
56600;BME280;51832;48.152;11.530;2023-03-22T09:32:16;95237.84;;;17.32;40.79
56600;BME280;51832;48.152;11.530;2023-03-22T09:37:18;95233.88;;;16.94;41.52
56600;BME280;51832;48.152;11.530;2023-03-22T09:42:26;95226.56;;;17.76;39.91
56600;BME280;51832;48.152;11.530;2023-03-22T09:47:34;95234.84;;;17.64;40.13
56600;BME280;51832;48.152;11.530;2023-03-22T09:52:37;95236.69;;;17.69;39.96
56600;BME280;51832;48.152;11.530;2023-03-22T09:57:38;95226.00;;;17.89;39.75
56600;BME280;51832;48.152;11.530;2023-03-22T10:08:07;95206.84;;;17.82;40.08
56600;BME280;51832;48.152;11.530;2023-03-22T10:18:20;95202.25;;;18.03;39.35
56600;BME280;51832;48.152;11.530;2023-03-22T10:23:31;95186.59;;;18.35;38.69
56600;BME280;51832;48.152;11.530;2023-03-22T10:28:37;95187.81;;;18.58;38.06
56600;BME280;51832;48.152;11.530;2023-03-22T10:33:41;95198.22;;;18.89;37.31
56600;BME280;51832;48.152;11.530;2023-03-22T10:38:54;95169.91;;;19.22;36.60
56600;BME280;51832;48.152;11.530;2023-03-22T10:43:59;95177.34;;;19.25;36.42
56600;BME280;51832;48.152;11.530;2023-03-22T10:49:02;95172.19;;;19.33;35.47
56600;BME280;51832;48.152;11.530;2023-03-22T10:54:04;95175.13;;;18.74;35.76
56600;BME280;51832;48.152;11.530;2023-03-22T10:59:05;95180.00;;;18.67;35.92
56600;BME280;51832;48.152;11.530;2023-03-22T11:04:08;95184.09;;;18.88;34.96
56600;BME280;51832;48.152;11.530;2023-03-22T11:09:15;95179.38;;;18.41;35.30
56600;BME280;51832;48.152;11.530;2023-03-22T11:19:31;95172.06;;;18.91;34.98
56600;BME280;51832;48.152;11.530;2023-03-22T11:24:33;95171.28;;;18.90;34.53
56600;BME280;51832;48.152;11.530;2023-03-22T11:29:46;95172.56;;;19.50;32.90
56600;BME280;51832;48.152;11.530;2023-03-22T11:35:01;95155.06;;;20.06;33.31
56600;BME280;51832;48.152;11.530;2023-03-22T11:40:04;95155.22;;;19.72;34.23
56600;BME280;51832;48.152;11.530;2023-03-22T11:45:35;95136.63;;;20.23;33.02
56600;BME280;51832;48.152;11.530;2023-03-22T11:50:36;95142.72;;;19.91;33.40
56600;BME280;51832;48.152;11.530;2023-03-22T11:55:40;95138.38;;;20.33;33.19
56600;BME280;51832;48.152;11.530;2023-03-22T12:00:41;95139.72;;;21.14;31.75
56600;BME280;51832;48.152;11.530;2023-03-22T12:05:44;95133.75;;;20.57;32.68
56600;BME280;51832;48.152;11.530;2023-03-22T12:10:49;95117.81;;;20.98;32.07
56600;BME280;51832;48.152;11.530;2023-03-22T12:15:57;95096.63;;;21.84;30.76
56600;BME280;51832;48.152;11.530;2023-03-22T12:21:00;95115.16;;;21.12;31.06
56600;BME280;51832;48.152;11.530;2023-03-22T12:26:09;95109.13;;;21.47;31.16
56600;BME280;51832;48.152;11.530;2023-03-22T12:31:15;95088.34;;;21.58;30.67
56600;BME280;51832;48.152;11.530;2023-03-22T12:36:19;95080.91;;;21.91;29.89
56600;BME280;51832;48.152;11.530;2023-03-22T12:46:34;95071.19;;;21.45;30.11
56600;BME280;51832;48.152;11.530;2023-03-22T12:51:41;95048.81;;;22.36;29.03
56600;BME280;51832;48.152;11.530;2023-03-22T12:56:44;95051.13;;;23.04;28.01
56600;BME280;51832;48.152;11.530;2023-03-22T13:07:30;95047.63;;;22.73;28.00
56600;BME280;51832;48.152;11.530;2023-03-22T13:12:32;95030.88;;;23.46;26.95
56600;BME280;51832;48.152;11.530;2023-03-22T13:17:42;95025.81;;;23.45;26.99
56600;BME280;51832;48.152;11.530;2023-03-22T13:28:20;95032.19;;;23.66;25.63
56600;BME280;51832;48.152;11.530;2023-03-22T13:33:25;95022.28;;;23.18;25.47
56600;BME280;51832;48.152;11.530;2023-03-22T13:38:39;95031.47;;;22.86;25.21
56600;BME280;51832;48.152;11.530;2023-03-22T13:43:48;95013.41;;;23.74;24.19
56600;BME280;51832;48.152;11.530;2023-03-22T13:49:14;95014.41;;;23.22;25.36
56600;BME280;51832;48.152;11.530;2023-03-22T13:54:20;95010.06;;;23.03;25.34
56600;BME280;51832;48.152;11.530;2023-03-22T13:59:28;95011.31;;;23.54;24.75
56600;BME280;51832;48.152;11.530;2023-03-22T14:04:45;95001.59;;;23.19;25.50
56600;BME280;51832;48.152;11.530;2023-03-22T14:09:49;94994.59;;;23.83;24.19
56600;BME280;51832;48.152;11.530;2023-03-22T14:14:54;94997.63;;;23.99;23.36
56600;BME280;51832;48.152;11.530;2023-03-22T14:19:56;94984.03;;;24.04;23.08
56600;BME280;51832;48.152;11.530;2023-03-22T14:24:58;94981.03;;;23.88;23.46
56600;BME280;51832;48.152;11.530;2023-03-22T14:29:59;94982.75;;;23.58;23.15
56600;BME280;51832;48.152;11.530;2023-03-22T14:35:16;94975.94;;;24.13;22.54
56600;BME280;51832;48.152;11.530;2023-03-22T14:40:32;94969.38;;;25.33;22.21
56600;BME280;51832;48.152;11.530;2023-03-22T14:45:33;94968.56;;;25.62;21.46
56600;BME280;51832;48.152;11.530;2023-03-22T14:50:34;94966.69;;;25.83;21.65
56600;BME280;51832;48.152;11.530;2023-03-22T14:55:43;94962.47;;;24.94;22.47
56600;BME280;51832;48.152;11.530;2023-03-22T15:00:45;94958.72;;;24.31;23.26
56600;BME280;51832;48.152;11.530;2023-03-22T15:05:47;94962.34;;;24.26;23.47
56600;BME280;51832;48.152;11.530;2023-03-22T15:10:54;94953.88;;;25.50;22.11
56600;BME280;51832;48.152;11.530;2023-03-22T15:15:56;94948.69;;;25.25;21.31
56600;BME280;51832;48.152;11.530;2023-03-22T15:20:58;94951.16;;;26.34;19.70
56600;BME280;51832;48.152;11.530;2023-03-22T15:26:10;94956.38;;;26.51;19.35
56600;BME280;51832;48.152;11.530;2023-03-22T15:31:22;94948.13;;;26.14;19.73
56600;BME280;51832;48.152;11.530;2023-03-22T15:36:23;94949.63;;;25.49;20.32
56600;BME280;51832;48.152;11.530;2023-03-22T15:46:29;94948.22;;;25.43;20.80
56600;BME280;51832;48.152;11.530;2023-03-22T15:51:35;94951.81;;;26.88;19.01
56600;BME280;51832;48.152;11.530;2023-03-22T15:56:39;94968.06;;;25.39;20.32
56600;BME280;51832;48.152;11.530;2023-03-22T16:01:41;94964.50;;;24.88;20.69
56600;BME280;51832;48.152;11.530;2023-03-22T16:06:43;94960.84;;;24.93;20.08
56600;BME280;51832;48.152;11.530;2023-03-22T16:11:44;94965.28;;;25.77;19.45
56600;BME280;51832;48.152;11.530;2023-03-22T16:16:46;94974.34;;;25.22;20.09
56600;BME280;51832;48.152;11.530;2023-03-22T16:21:47;94983.84;;;24.18;21.44
56600;BME280;51832;48.152;11.530;2023-03-22T16:26:48;94978.56;;;25.32;20.65
56600;BME280;51832;48.152;11.530;2023-03-22T16:31:48;94977.53;;;26.73;19.08
56600;BME280;51832;48.152;11.530;2023-03-22T16:36:49;94980.88;;;27.03;18.90
56600;BME280;51832;48.152;11.530;2023-03-22T16:41:49;94977.53;;;27.83;18.64
56600;BME280;51832;48.152;11.530;2023-03-22T16:46:49;94980.06;;;26.45;19.87
56600;BME280;51832;48.152;11.530;2023-03-22T16:51:50;94979.09;;;25.96;20.48
56600;BME280;51832;48.152;11.530;2023-03-22T16:56:50;94994.22;;;25.38;21.11
56600;BME280;51832;48.152;11.530;2023-03-22T17:01:51;94993.53;;;25.71;21.00
56600;BME280;51832;48.152;11.530;2023-03-22T17:06:51;94990.88;;;25.12;21.25
56600;BME280;51832;48.152;11.530;2023-03-22T17:11:52;95002.69;;;24.82;21.51
56600;BME280;51832;48.152;11.530;2023-03-22T17:16:52;94994.16;;;23.90;22.36
56600;BME280;51832;48.152;11.530;2023-03-22T17:21:52;95003.78;;;22.46;23.18
56600;BME280;51832;48.152;11.530;2023-03-22T17:26:53;94997.66;;;22.23;23.84
56600;BME280;51832;48.152;11.530;2023-03-22T17:31:54;95002.91;;;22.06;23.78
56600;BME280;51832;48.152;11.530;2023-03-22T17:36:55;95004.91;;;22.23;23.87
56600;BME280;51832;48.152;11.530;2023-03-22T17:41:55;95001.31;;;22.05;24.16
56600;BME280;51832;48.152;11.530;2023-03-22T17:46:56;94993.91;;;21.66;24.66
56600;BME280;51832;48.152;11.530;2023-03-22T17:51:56;94992.13;;;21.61;24.99
56600;BME280;51832;48.152;11.530;2023-03-22T17:56:57;95012.09;;;21.42;25.14
56600;BME280;51832;48.152;11.530;2023-03-22T18:01:58;95012.41;;;21.26;25.48
56600;BME280;51832;48.152;11.530;2023-03-22T18:06:59;95011.19;;;20.91;25.87
56600;BME280;51832;48.152;11.530;2023-03-22T18:12:00;95017.34;;;21.06;25.90
56600;BME280;51832;48.152;11.530;2023-03-22T18:17:00;95020.81;;;20.92;26.15
56600;BME280;51832;48.152;11.530;2023-03-22T18:22:01;95018.84;;;20.98;26.51
56600;BME280;51832;48.152;11.530;2023-03-22T18:27:01;95023.91;;;21.00;26.68
56600;BME280;51832;48.152;11.530;2023-03-22T18:32:02;95022.09;;;20.81;30.29
56600;BME280;51832;48.152;11.530;2023-03-22T18:37:03;95033.72;;;21.04;26.97
56600;BME280;51832;48.152;11.530;2023-03-22T18:42:04;95033.00;;;20.99;27.19
56600;BME280;51832;48.152;11.530;2023-03-22T18:47:04;95033.81;;;20.39;28.31
56600;BME280;51832;48.152;11.530;2023-03-22T18:52:07;95033.75;;;19.93;29.22
56600;BME280;51832;48.152;11.530;2023-03-22T18:57:07;95031.34;;;19.92;28.95
56600;BME280;51832;48.152;11.530;2023-03-22T19:02:09;95027.38;;;19.89;29.21
56600;BME280;51832;48.152;11.530;2023-03-22T19:07:10;95024.72;;;19.51;29.86
56600;BME280;51832;48.152;11.530;2023-03-22T19:12:12;95026.28;;;19.71;29.74
56600;BME280;51832;48.152;11.530;2023-03-22T19:17:12;95034.16;;;19.63;30.07
56600;BME280;51832;48.152;11.530;2023-03-22T19:22:13;95030.47;;;19.40;30.49
56600;BME280;51832;48.152;11.530;2023-03-22T19:27:15;95025.47;;;19.33;30.80
56600;BME280;51832;48.152;11.530;2023-03-22T19:32:15;95032.06;;;19.17;30.87
56600;BME280;51832;48.152;11.530;2023-03-22T19:37:16;95035.66;;;19.07;31.24
56600;BME280;51832;48.152;11.530;2023-03-22T19:42:17;95032.72;;;18.85;31.92
56600;BME280;51832;48.152;11.530;2023-03-22T19:47:17;95026.72;;;18.40;32.63
56600;BME280;51832;48.152;11.530;2023-03-22T19:52:18;95031.16;;;18.50;32.82
56600;BME280;51832;48.152;11.530;2023-03-22T19:57:18;95038.31;;;18.55;32.97
56600;BME280;51832;48.152;11.530;2023-03-22T20:02:18;95037.59;;;18.15;33.57
56600;BME280;51832;48.152;11.530;2023-03-22T20:07:19;95032.72;;;18.27;33.29
56600;BME280;51832;48.152;11.530;2023-03-22T20:12:24;95031.34;;;18.01;33.96
56600;BME280;51832;48.152;11.530;2023-03-22T20:17:24;95043.78;;;17.66;34.63
56600;BME280;51832;48.152;11.530;2023-03-22T20:22:25;95037.72;;;17.51;35.10
56600;BME280;51832;48.152;11.530;2023-03-22T20:27:26;95040.72;;;17.39;35.31
56600;BME280;51832;48.152;11.530;2023-03-22T20:32:27;95042.81;;;17.47;35.56
56600;BME280;51832;48.152;11.530;2023-03-22T20:37:27;95039.31;;;17.52;35.13
56600;BME280;51832;48.152;11.530;2023-03-22T20:42:28;95030.63;;;17.36;35.50
56600;BME280;51832;48.152;11.530;2023-03-22T20:47:29;95039.13;;;17.43;35.65
56600;BME280;51832;48.152;11.530;2023-03-22T20:52:29;95045.41;;;17.08;36.14
56600;BME280;51832;48.152;11.530;2023-03-22T20:57:30;95031.06;;;17.04;36.35
56600;BME280;51832;48.152;11.530;2023-03-22T21:02:30;95045.72;;;16.91;36.83
56600;BME280;51832;48.152;11.530;2023-03-22T21:07:31;95041.25;;;16.77;36.93
56600;BME280;51832;48.152;11.530;2023-03-22T21:12:31;95038.34;;;16.63;37.08
56600;BME280;51832;48.152;11.530;2023-03-22T21:17:32;95044.66;;;16.82;36.72
56600;BME280;51832;48.152;11.530;2023-03-22T21:22:33;95050.03;;;16.72;37.08
56600;BME280;51832;48.152;11.530;2023-03-22T21:27:35;95039.94;;;16.64;37.52
56600;BME280;51832;48.152;11.530;2023-03-22T21:32:38;95054.03;;;16.39;37.88
56600;BME280;51832;48.152;11.530;2023-03-22T21:37:39;95051.91;;;16.41;37.95
56600;BME280;51832;48.152;11.530;2023-03-22T21:42:39;95043.13;;;16.41;38.21
56600;BME280;51832;48.152;11.530;2023-03-22T21:47:46;95043.41;;;16.44;38.13
56600;BME280;51832;48.152;11.530;2023-03-22T21:52:52;95039.16;;;16.13;38.38
56600;BME280;51832;48.152;11.530;2023-03-22T21:57:53;95029.88;;;15.80;39.29
56600;BME280;51832;48.152;11.530;2023-03-22T22:02:57;95036.00;;;15.95;39.42
56600;BME280;51832;48.152;11.530;2023-03-22T22:07:58;95029.88;;;16.05;39.31
56600;BME280;51832;48.152;11.530;2023-03-22T22:12:58;95023.25;;;15.77;39.99
56600;BME280;51832;48.152;11.530;2023-03-22T22:17:58;95030.13;;;15.63;40.50
56600;BME280;51832;48.152;11.530;2023-03-22T22:23:00;95024.81;;;15.73;40.56
56600;BME280;51832;48.152;11.530;2023-03-22T22:28:01;95030.44;;;15.82;40.28
56600;BME280;51832;48.152;11.530;2023-03-22T22:33:01;95028.81;;;15.71;40.83
56600;BME280;51832;48.152;11.530;2023-03-22T22:38:03;95023.97;;;15.52;41.38
56600;BME280;51832;48.152;11.530;2023-03-22T22:43:03;95024.06;;;16.08;40.25
56600;BME280;51832;48.152;11.530;2023-03-22T22:48:04;95020.03;;;15.55;41.24
56600;BME280;51832;48.152;11.530;2023-03-22T22:53:04;95017.78;;;15.11;42.92
56600;BME280;51832;48.152;11.530;2023-03-22T22:58:05;95028.50;;;15.52;42.40
56600;BME280;51832;48.152;11.530;2023-03-22T23:03:05;95024.25;;;15.51;42.46
56600;BME280;51832;48.152;11.530;2023-03-22T23:08:05;95022.00;;;15.07;44.10
56600;BME280;51832;48.152;11.530;2023-03-22T23:13:06;95016.78;;;15.33;43.43
56600;BME280;51832;48.152;11.530;2023-03-22T23:18:08;95010.28;;;14.93;44.57
56600;BME280;51832;48.152;11.530;2023-03-22T23:23:12;95012.00;;;15.29;43.91
56600;BME280;51832;48.152;11.530;2023-03-22T23:28:12;95012.50;;;15.21;44.03
56600;BME280;51832;48.152;11.530;2023-03-22T23:33:14;95013.31;;;15.17;44.10
56600;BME280;51832;48.152;11.530;2023-03-22T23:38:14;95026.47;;;14.97;44.40
56600;BME280;51832;48.152;11.530;2023-03-22T23:43:15;95012.09;;;14.82;44.91
56600;BME280;51832;48.152;11.530;2023-03-22T23:48:15;95018.56;;;15.02;44.54
56600;BME280;51832;48.152;11.530;2023-03-22T23:53:15;95022.69;;;14.82;45.02
56600;BME280;51832;48.152;11.530;2023-03-22T23:58:16;95020.56;;;14.79;45.71
